Archival Weather

South Haven Area Rgnl

South Haven, Michigan (KLWA)

Report from: Tuesday, September 19, 2023 10:15 AM EDT
Current time: Saturday, July 13, 2024 9:29 PM EDT

Current weather – Weather history – Daily summaries
Weather forecast

Temperature16.1°C (61.0°F)
Dew point13.2°C (55.8°F)
Winds 3 kts (1.5 m/s, 3.5 mph) South (170°)
Visibility10 mi. (16.1 km)
Clouds Scattered clouds 10,000 ft. (3,048 m)
Altimeter30.08 in.Hg (1019 mB)
Relative humidity83 %
Density altitude160 ft. (49 m)
Remarks Fully automated report
Automated weather observing station with precipitation discriminator
Flight conditions Visual Meteorological Conditions
Raw dataKLWA 191415Z AUTO 17003KT 10SM SCT100 16/13 A3008 RMK AO2 T01610132
An error has occurred. This application may no longer respond until reloaded. Reload 🗙